Portada
METAR-TAF:

METAR-TAF

Aeroports :

Ōita, Japó

latitud: 33-29N, longitud: 131-44E, altitud: 5 m

Observació

L'informe es va fer fa 1 hora i 9 minuts, a les 10:00 UTC
Vent 4 kt del Sud-Oest
Temperatura 23°C
Humitat 41%
Pressió 1009 hPa
Visibilitat 10 km o més
Escasses núvols a una alçada de 3500 ft

METAR: RJFO 231000Z 22004KT 9999 FEW035 23/09 Q1009

Hora: 20:09 (11:09 UTC)

Pronòstic

L'informe es va fer fa 6 hores i 0 minuts, a les 05:09 UTC
Pronòstic vàlid del 23 a les 06 UTC al 24 a les 12 UTC
Vent 6 kt del Est
Visibilitat 10 km o més
Escasses núvols a una alçada de 3000 ft
Evolucionant progressivament
l' 23 a les 07 UTC al 23 a les 09 UTC
Vent 4 kt del Oest
Evolucionant progressivament
l' 24 a les 00 UTC al 24 a les 03 UTC
Vent 5 kt del Est
Evolucionant progressivament
l' 24 a les 09 UTC al 24 a les 12 UTC
Vent 3 kt del Oest

TAF: RJFO 230509Z 2306/2412 08006KT 9999 FEW030 BECMG 2307/2309 26004KT BECMG 2400/2403 08005KT BECMG 2409/2412 26003KT

Observacions i pronòstics meteorològics de més de 4000 aeroports (METAR i TAF).

Les estacions disponibles són els punts grocs i vermells al mapa.

Posi el ratolí al punt desitjat per veure el nom de l'estació.

Feu clic per veure les observacions i els pronòstics meteorològics.

Per canviar el mapa: feu clic els botons verds amb una creu de color negre per apropar; al botó verd amb un guió per allunyar la imatge; o en les fletxes verdes per a mapes adjacents.


METAR-TAF: